Terminal Aerodrome Forecast
Issued by NWS

Home | Current Version | Previous Version | Text Only | Print | Product List | Glossary On
Versions: 1 2 3 4 5 6 7 8 9 10 11 12 13 14 15 16 17 18 19 20 21 22 23 24 25 26 27 28
000
FTUS43 KMKX 240807 AAB
TAFUES
TAF AMD
KUES 240807Z 2408/2506 27004KT 1 1/2SM BR OVC004
     FM241500 VRB03KT P6SM OVC008
     FM241700 25004KT P6SM SCT040 SCT200
     FM242300 21005KT P6SM SCT080 BKN150
     FM250400 19004KT 6SM BR SCT015=

USA.gov is the U.S. government's official web portal to all federal, state and local government web resources and services.